• Join FlightAware (Why Join?)
  • Login
  • US Flag 
07:01PM EST


 

Airport Tracker/Info


-or-


 

Live Flight TrackerFlight Track Log ✈ TCF3494 ✈ 26-Apr-2013 ✈ KLGA - KORD

Flight Track Log - Related Links

Times and Time Zones

All times are in EDT time to prevent confusion due to time zone crossing. See the TCF3494 flight status page for this flight to view local times or setup timezone preferences in your user account.

Time Position Orientation Groundspeed Altitude Reporting Facility
EDT Latitude Longitude Course Direction KTS MPH feet Rate Location/Type
07:32PM 40.7667 -73.8000 299° West 181 208 2,400  Level New York TRACON
07:33PM 40.8167 -73.7500 37° Northeast 225 259 5,100 2,450 Climbing New York TRACON
07:34PM 40.9340 -74.2345 304° West  Level FlightAware Approximate
07:34PM 40.8667 -73.8000 323° Northwest 257 296 7,300  Level New York TRACON
07:35PM 40.9818 -74.3303 304° West  Level FlightAware Approximate
07:36PM 41.0240 -74.4307 299° West  Level FlightAware Approximate
07:36PM 40.9678 -73.9919 305° West 286 329 12,800  Level New York Center
07:37PM 41.0659 -74.5314 299° West  Level FlightAware Approximate
07:37PM 41.0192 -74.0933 304° West 293 337 15,000  Level New York Center
07:38PM 41.0431 -74.2017 286° West 298 343 15,400 496 Climbing New York Center
07:39PM 41.0667 -74.3211 285° West 330 380 16,000 298 Climbing New York Center
07:40PM 41.0881 -74.4353 284° West 335 386 16,000 99 Level New York Center
07:41PM 41.1097 -74.5439 285° West 314 361 16,200 1,008 Climbing New York Center
07:42PM 41.1269 -74.6494 282° West 298 343 18,000 1,714 Climbing New York Center
07:43PM 41.1553 -74.7364 293° West 298 343 19,600 1,261 Climbing New York Center
07:44PM 41.2039 -74.8442 301° West 305 351 20,500 1,109 Climbing New York Center
07:45PM 41.2497 -74.9600 298° West 338 389 21,800 1,350 Climbing New York Center
07:46PM 41.2978 -75.0733 299° West 349 402 23,200 1,388 Climbing New York Center
07:47PM 41.3478 -75.1872 300° West 356 410 24,600 1,328 Climbing New York Center
07:48PM 41.3994 -75.3067 300° West 366 421 25,900 1,289 Climbing New York Center
07:49PM 41.4511 -75.4264 300° West 366 421 27,200 1,388 Climbing New York Center
07:50PM 41.4942 -75.5486 295° West 366 421 28,700 1,350 Climbing New York Center
07:51PM 41.5306 -75.6758 291° West 361 415 29,900 1,282 Climbing New York Center
07:52PM 41.5650 -75.8003 290° West 361 415 31,200 1,361 Climbing New York Center
07:53PM 41.6067 -75.9422 291° West 367 422 32,600 1,240 Climbing New York Center
07:54PM 41.6428 -76.0672 291° West 367 422 33,700 694 Climbing New York Center
07:55PM 41.6789 -76.1922 291° West 367 422 34,000 151 Climbing New York Center
07:56PM 41.7125 -76.3172 290° West 367 422 34,000  Level New York Center
07:57PM 41.7483 -76.4453 291° West 367 422 34,000  Level New York Center
07:58PM 41.7783 -76.5564 290° West 362 417 34,000  Level New York Center
08:00PM 41.8481 -76.8086 290° West 362 417 34,000  Level Cleveland Center
08:01PM 41.8833 -76.9375 290° West 362 417 34,000  Level Cleveland Center
08:02PM 41.9186 -77.0614 291° West 362 417 34,000  Level Cleveland Center
08:03PM 41.9514 -77.1850 290° West 362 417 34,000  Level Cleveland Center
08:04PM 41.9842 -77.3092 290° West 362 417 34,000  Level Cleveland Center
08:05PM 42.0189 -77.4303 291° West 362 417 34,000  Level Cleveland Center
08:06PM 42.0514 -77.5572 289° West 362 417 34,000  Level Cleveland Center
08:07PM 42.0842 -77.6872 289° West 362 417 34,000  Level Cleveland Center
08:08PM 42.1183 -77.8117 290° West 362 417 34,000  Level Cleveland Center
08:09PM 42.1506 -77.9364 289° West 362 417 34,000  Level Cleveland Center
08:10PM 42.1847 -78.0639 290° West 362 417 34,000  Level Cleveland Center
08:11PM 42.2186 -78.1917 290° West 362 417 34,000  Level Cleveland Center
08:12PM 42.2458 -78.3056 288° West 362 417 34,000  Level Cleveland Center
08:13PM 42.2797 -78.4278 291° West 362 417 34,000  Level Cleveland Center
08:14PM 42.3131 -78.5558 289° West 362 417 34,000  Level Cleveland Center
08:15PM 42.3444 -78.6842 288° West 362 417 34,000  Level Cleveland Center
08:16PM 42.3758 -78.8097 289° West 362 417 34,000  Level Cleveland Center
08:17PM 42.4092 -78.9494 288° West 362 417 34,000  Level Cleveland Center
08:18PM 42.4422 -79.0808 289° West 362 417 34,000  Level Cleveland Center
08:19PM 42.4750 -79.2067 289° West 362 417 34,000  Level Cleveland Center
08:20PM 42.4972 -79.3244 284° West 362 417 34,000  Level Cleveland Center
08:21PM 42.5006 -79.4653 272° West 362 417 34,000  Level Cleveland Center
08:22PM 42.5103 -79.5975 276° West 362 417 34,000  Level Cleveland Center
08:23PM 42.5133 -79.7297 272° West 368 423 34,000  Level Cleveland Center
08:24PM 42.5247 -79.8675 276° West 368 423 34,000  Level Cleveland Center
08:25PM 42.5233 -80.0169 269° West 368 423 34,000  Level Cleveland Center
08:26PM 42.5281 -80.1494 273° West 362 417 34,000  Level Cleveland Center
08:27PM 42.5347 -80.2844 274° West 367 422 34,000  Level Cleveland Center
08:28PM 42.5433 -80.4169 275° West 361 415 34,000  Level Cleveland Center
08:29PM 42.5478 -80.5494 273° West 361 415 34,000  Level Cleveland Center
08:30PM 42.5519 -80.6847 272° West 361 415 34,000  Level Cleveland Center
08:31PM 42.5581 -80.8031 274° West 369 425 34,000  Level Cleveland Center
08:32PM 42.5617 -80.9356 272° West 363 418 34,000  Level Cleveland Center
08:33PM 42.5675 -81.0653 274° West 358 412 34,000  Level Cleveland Center
08:34PM 42.5711 -81.2006 272° West 358 412 34,000  Level Cleveland Center
08:35PM 42.5767 -81.3331 273° West 364 419 34,000  Level Cleveland Center
08:36PM 42.5839 -81.4631 274° West 359 413 34,000  Level Cleveland Center
08:37PM 42.6081 -81.5903 285° West 349 402 34,000  Level Cleveland Center
08:38PM 42.6297 -81.7233 283° West 349 402 34,000  Level Cleveland Center
08:39PM 42.6533 -81.8592 283° West 349 402 34,000  Level Cleveland Center
08:40PM 42.6767 -81.9894 284° West 354 407 34,000  Level Cleveland Center
08:41PM 42.6981 -82.1172 283° West 354 407 34,000  Level Cleveland Center
08:42PM 42.7211 -82.2478 284° West 354 407 34,000  Level Cleveland Center
08:43PM 42.7422 -82.3756 283° West 354 407 34,000  Level Cleveland Center
08:44PM 42.7525 -82.5058 276° West 354 407 34,000  Level Cleveland Center
08:45PM 42.7608 -82.6361 275° West 354 407 34,000  Level Cleveland Center
08:46PM 42.7647 -82.7664 272° West 349 402 34,000  Level Cleveland Center
08:47PM 42.7706 -82.8883 274° West 349 402 34,000  Level Cleveland Center
08:48PM 42.7761 -83.0186 273° West 349 402 34,000  Level Cleveland Center
08:49PM 42.7839 -83.1519 275° West 349 402 34,000  Level Cleveland Center
08:50PM 42.7911 -83.2853 274° West 349 402 34,000  Level Cleveland Center
08:51PM 42.7942 -83.4156 272° West 349 402 34,000  Level Cleveland Center
08:52PM 42.8014 -83.5461 274° West 349 402 34,000  Level Cleveland Center
08:53PM 42.8061 -83.6822 273° West 349 402 34,000 -350 Level Cleveland Center
08:54PM 42.8089 -83.8125 272° West 349 402 33,300 -750 Descending Cleveland Center
08:55PM 42.8156 -83.9431 274° West 349 402 32,500 -459 Descending Cleveland Center
08:57PM 42.8264 -84.1886 274° West 354 407 32,000 -174 Descending Chicago Center
08:58PM 42.8311 -84.3225 273° West 353 406 32,000  Level Chicago Center
08:59PM 42.8344 -84.4572 272° West 357 411 32,000  Level Chicago Center
09:00PM 42.8389 -84.5911 273° West 354 407 32,000  Level Chicago Center
09:01PM 42.8431 -84.7544 272° West 359 413 32,000  Level Chicago Center
09:02PM 42.8469 -84.8900 272° West 360 414 32,000  Level Chicago Center
09:03PM 42.8383 -85.0261 265° West 360 414 32,000  Level Chicago Center
09:04PM 42.8231 -85.1619 261° West 363 418 32,000  Level Chicago Center
09:05PM 42.8081 -85.3036 262° West 372 428 32,000 -194 Level Chicago Center
09:06PM 42.7917 -85.4506 261° West 385 443 31,600 -1,258 Descending Chicago Center
09:07PM 42.7681 -85.6011 258° West 402 463 29,400 -2,371 Descending Chicago Center
09:08PM 42.7353 -85.7869 257° West 418 481 26,700 -2,323 Descending Chicago Center
09:09PM 42.7081 -85.9344 256° West 403 464 24,600 -2,032 Descending Chicago Center
09:10PM 42.6817 -86.0775 256° West 392 451 22,500 -1,968 Descending Chicago Center
09:11PM 42.6564 -86.2164 256° West 380 437 20,500 -1,200 Descending Chicago Center
09:12PM 42.6303 -86.3522 255° West 374 430 20,000 -242 Descending Chicago Center
09:13PM 42.6036 -86.4917 255° West 378 435 20,000 -968 Level Chicago Center
09:14PM 42.5778 -86.6292 256° West 376 433 18,000 -1,984 Descending Chicago Center
09:15PM 42.5464 -86.7886 255° West 368 423 15,900 -2,129 Descending Chicago Center
09:16PM 42.5111 -86.9122 249° West 359 413 13,600 -2,244 Descending Chicago Center
09:17PM 42.4769 -87.0369 250° West 355 409 11,300 -1,756 Descending Chicago Center
09:18PM 42.4442 -87.1531 249° West 336 387 10,000 -919 Descending Chicago Center
09:19PM 42.4172 -87.2461 249° West 275 316 9,400 -1,016 Descending Chicago Center
09:20PM 42.3906 -87.3347 248° West 259 298 7,900 -1,161 Descending Chicago Center
09:21PM 42.3622 -87.4347 249° West 241 277 7,000 -435 Descending Chicago Center
09:23PM 42.3317 -87.5186 244° Southwest 248 285 7,000  Level Chicago Center
09:24PM 42.2828 -87.5806 223° Southwest 242 278 7,000 -97 Level Chicago Center
09:25PM 42.2325 -87.6350 219° Southwest 237 273 6,800 -634 Descending Chicago Center
09:26PM 42.1892 -87.6842 220° Southwest 214 246 5,700 -1,024 Descending Chicago Center
09:27PM 42.1514 -87.7264 220° Southwest 187 215 4,700 -968 Descending Chicago Center
09:28PM 42.1128 -87.7703 220° Southwest 161 185 3,700 -975 Descending Chicago Center
09:28PM 42.1000 -87.7833 217° Southwest 153 176 3,400 -1,000 Descending Chicago TRACON